createdAt,value
2022-09-28T00:00:05.486Z,21.63
2022-09-28T00:02:41.939Z,17.27
2022-09-28T00:05:12.755Z,15.57
2022-09-28T00:07:45.025Z,14.23
2022-09-28T00:10:14.546Z,16.70
2022-09-28T00:12:44.110Z,16.05
2022-09-28T00:15:13.784Z,13.48
2022-09-28T00:17:44.724Z,20.48
2022-09-28T00:20:14.418Z,14.30
2022-09-28T00:22:46.582Z,18.40
2022-09-28T00:25:16.899Z,13.23
2022-09-28T00:27:46.585Z,11.90
2022-09-28T00:30:16.469Z,10.93
2022-09-28T00:32:46.749Z,12.27
2022-09-28T00:35:16.589Z,11.10
2022-09-28T00:37:48.886Z,16.30
2022-09-28T00:40:18.665Z,13.32
2022-09-28T00:42:48.246Z,13.13
2022-09-28T00:45:18.295Z,12.52
2022-09-28T00:47:50.973Z,13.70
2022-09-28T00:50:24.755Z,13.27
2022-09-28T00:53:00.161Z,15.73
2022-09-28T00:55:35.184Z,15.47
2022-09-28T00:58:07.056Z,17.63
2022-09-28T01:00:36.665Z,13.07
2022-09-28T01:03:06.798Z,11.77
2022-09-28T01:05:38.245Z,14.20
2022-09-28T01:08:10.549Z,11.85
2022-09-28T01:10:43.142Z,13.82
2022-09-28T01:13:12.945Z,14.60
2022-09-28T01:15:45.765Z,13.98
2022-09-28T01:18:23.714Z,13.73
2022-09-28T01:21:03.927Z,14.50
2022-09-28T01:24:01.233Z,17.80
2022-09-28T01:26:45.596Z,17.40
2022-09-28T01:29:20.248Z,19.05
2022-09-28T01:31:54.371Z,20.27
2022-09-28T01:34:28.080Z,22.73
2022-09-28T01:36:59.297Z,22.60
2022-09-28T01:39:33.241Z,25.52
2022-09-28T01:42:08.863Z,26.40
2022-09-28T01:44:40.073Z,22.33
2022-09-28T01:47:14.785Z,28.48
2022-09-28T01:49:46.772Z,25.77
2022-09-28T01:52:19.020Z,25.43
2022-09-28T01:54:52.689Z,24.20
2022-09-28T01:57:28.584Z,31.73
2022-09-28T02:00:03.312Z,29.25
2022-09-28T02:02:48.340Z,32.00
2022-09-28T02:05:24.356Z,33.90
2022-09-28T02:07:59.694Z,37.08
2022-09-28T02:10:32.092Z,36.80
2022-09-28T02:13:06.256Z,40.22
2022-09-28T02:15:40.347Z,39.10
2022-09-28T02:18:10.113Z,42.55
2022-09-28T02:20:41.783Z,38.20
2022-09-28T02:23:11.724Z,44.77
2022-09-28T02:25:47.544Z,44.58
2022-09-28T02:28:20.520Z,36.85
2022-09-28T02:30:50.228Z,38.40
2022-09-28T02:33:23.383Z,45.40
2022-09-28T02:35:53.441Z,41.47
2022-09-28T02:38:25.621Z,39.10
2022-09-28T02:41:03.488Z,33.90
2022-09-28T02:43:46.602Z,38.75
2022-09-28T02:46:20.538Z,37.38
2022-09-28T02:49:20.456Z,36.95
2022-09-28T02:52:01.192Z,34.53
2022-09-28T02:54:51.156Z,45.90
2022-09-28T02:57:31.883Z,34.20
2022-09-28T03:00:08.668Z,39.47
2022-09-28T03:02:44.888Z,36.10
2022-09-28T03:05:18.353Z,35.50
2022-09-28T03:07:52.987Z,42.63
2022-09-28T03:10:28.562Z,39.15
2022-09-28T03:12:58.789Z,39.47
2022-09-28T03:15:32.866Z,44.83
2022-09-28T03:18:03.292Z,42.75
2022-09-28T03:20:34.139Z,39.27
2022-09-28T03:23:24.731Z,53.38
2022-09-28T03:25:54.830Z,38.15
2022-09-28T03:28:24.424Z,49.40
2022-09-28T03:30:57.462Z,45.60
2022-09-28T03:33:27.007Z,46.50
2022-09-28T03:35:56.853Z,51.08
2022-09-28T03:38:26.706Z,43.50
2022-09-28T03:40:57.512Z,46.07
2022-09-28T03:43:28.295Z,46.38
2022-09-28T03:46:04.275Z,49.35
2022-09-28T03:48:38.780Z,47.67
2022-09-28T03:51:09.864Z,47.00
2022-09-28T03:53:41.678Z,47.85
2022-09-28T03:56:14.565Z,61.20
2022-09-28T03:58:45.089Z,54.30
2022-09-28T04:01:18.768Z,53.53
2022-09-28T04:03:50.165Z,55.10
2022-09-28T04:06:20.549Z,47.08
2022-09-28T04:08:50.137Z,52.60
2022-09-28T04:11:20.330Z,50.00
2022-09-28T04:13:51.582Z,50.13
2022-09-28T04:16:23.897Z,49.53
2022-09-28T04:19:04.250Z,48.92
2022-09-28T04:21:34.059Z,52.83
2022-09-28T04:24:10.964Z,49.92
2022-09-28T04:26:41.066Z,46.80
2022-09-28T04:29:19.095Z,43.17
2022-09-28T04:32:01.438Z,57.95
2022-09-28T04:34:43.745Z,51.63
2022-09-28T04:37:14.979Z,57.55
2022-09-28T04:39:48.249Z,49.95
2022-09-28T04:42:20.689Z,52.95
2022-09-28T04:44:52.924Z,49.92
2022-09-28T04:47:25.125Z,52.92
2022-09-28T04:50:14.953Z,52.60
2022-09-28T04:53:03.700Z,53.40
2022-09-28T04:55:33.333Z,50.90
2022-09-28T04:58:03.560Z,53.17
2022-09-28T05:00:35.662Z,54.10
2022-09-28T05:03:17.752Z,54.55
2022-09-28T05:06:06.934Z,55.20
2022-09-28T05:08:46.757Z,54.17
2022-09-28T05:11:18.324Z,56.60
2022-09-28T05:13:48.899Z,54.43
2022-09-28T05:16:20.544Z,53.10
2022-09-28T05:19:16.024Z,55.90
2022-09-28T05:21:48.855Z,55.53
2022-09-28T05:24:18.511Z,55.97
2022-09-28T05:26:53.465Z,55.83
2022-09-28T05:29:23.152Z,54.58
2022-09-28T05:32:11.554Z,59.80
2022-09-28T05:34:46.559Z,60.05
2022-09-28T05:37:22.214Z,56.70
2022-09-28T05:39:51.849Z,56.58
2022-09-28T05:42:21.468Z,57.83
2022-09-28T05:44:52.140Z,55.42
2022-09-28T05:47:22.178Z,58.80
2022-09-28T05:49:55.770Z,58.58
2022-09-28T05:52:25.789Z,57.35
2022-09-28T05:54:57.083Z,57.58
2022-09-28T05:57:26.730Z,55.40
2022-09-28T05:59:56.437Z,56.85
2022-09-28T06:02:26.157Z,61.25
2022-09-28T06:04:58.894Z,59.33
2022-09-28T06:07:28.541Z,56.63
2022-09-28T06:09:58.128Z,60.45
2022-09-28T06:12:41.306Z,58.80
2022-09-28T06:15:17.413Z,57.53
2022-09-28T06:17:48.351Z,65.00
2022-09-28T06:20:41.052Z,59.55
2022-09-28T06:23:20.700Z,60.33
2022-09-28T06:25:50.390Z,58.22
2022-09-28T06:28:20.074Z,59.22
2022-09-28T06:30:49.822Z,65.78
2022-09-28T06:33:21.991Z,60.00
2022-09-28T06:35:54.149Z,52.25
2022-09-28T06:38:23.779Z,60.28
2022-09-28T06:40:53.661Z,71.07
2022-09-28T06:43:23.492Z,59.40
2022-09-28T06:46:25.697Z,60.67
2022-09-28T06:49:27.102Z,64.18
2022-09-28T06:52:18.129Z,62.80
2022-09-28T06:55:10.276Z,65.00
2022-09-28T06:57:47.133Z,67.10
2022-09-28T07:00:18.592Z,66.38
2022-09-28T07:02:49.798Z,65.25
2022-09-28T07:05:43.816Z,67.50
2022-09-28T07:08:34.748Z,70.70
2022-09-28T07:11:26.989Z,65.82
2022-09-28T07:14:24.705Z,61.25
2022-09-28T07:17:13.051Z,59.03
2022-09-28T07:19:44.671Z,52.60
2022-09-28T07:22:18.833Z,51.92
2022-09-28T07:24:52.289Z,48.95
2022-09-28T07:27:40.679Z,47.55
2022-09-28T07:30:35.562Z,51.10
2022-09-28T07:33:11.013Z,53.00
2022-09-28T07:35:58.010Z,48.17
2022-09-28T07:38:32.086Z,52.70
2022-09-28T07:41:22.384Z,56.17
2022-09-28T07:43:55.450Z,50.00
2022-09-28T07:46:25.084Z,55.00
2022-09-28T07:49:00.141Z,53.63
2022-09-28T07:51:56.416Z,50.40
2022-09-28T07:54:31.761Z,51.58
2022-09-28T07:57:28.887Z,51.53
2022-09-28T08:00:24.928Z,55.78
2022-09-28T08:02:55.042Z,51.08
2022-09-28T08:05:27.061Z,50.30
2022-09-28T08:07:58.482Z,51.42
2022-09-28T08:10:30.049Z,54.78
2022-09-28T08:13:28.545Z,52.42
2022-09-28T08:16:16.897Z,50.17
2022-09-28T08:18:54.129Z,52.22
2022-09-28T08:21:36.939Z,55.67
2022-09-28T08:24:06.891Z,49.53
2022-09-28T08:26:36.701Z,48.07
2022-09-28T08:29:08.974Z,45.63
2022-09-28T08:32:01.728Z,44.30
2022-09-28T08:34:52.264Z,50.65
2022-09-28T08:37:40.174Z,56.17
2022-09-28T08:40:28.876Z,55.47
2022-09-28T08:43:27.043Z,51.65
2022-09-28T08:46:06.187Z,50.47
2022-09-28T08:49:20.633Z,44.30
2022-09-28T08:52:23.527Z,46.85
2022-09-28T08:55:31.504Z,42.20
2022-09-28T08:58:05.952Z,42.63
2022-09-28T09:00:41.673Z,41.37
2022-09-28T09:03:17.533Z,42.72
2022-09-28T09:06:00.450Z,41.67
2022-09-28T09:09:00.144Z,36.53
2022-09-28T09:11:50.104Z,39.65
2022-09-28T09:14:40.300Z,40.90
2022-09-28T09:17:18.818Z,39.63
2022-09-28T09:20:21.645Z,46.17
2022-09-28T09:23:18.494Z,41.93
2022-09-28T09:25:54.833Z,36.75
2022-09-28T09:28:38.322Z,40.80
2022-09-28T09:31:22.415Z,36.05
2022-09-28T09:34:37.565Z,41.38
2022-09-28T09:37:58.516Z,34.03
2022-09-28T09:40:57.255Z,36.22
2022-09-28T09:44:07.780Z,30.77
2022-09-28T09:47:07.839Z,34.38
2022-09-28T09:49:51.569Z,33.17
2022-09-28T09:52:25.118Z,30.20
2022-09-28T09:55:02.244Z,32.72
2022-09-28T09:57:57.011Z,29.88
2022-09-28T10:00:43.829Z,28.88
2022-09-28T10:03:26.714Z,26.70
2022-09-28T10:06:03.037Z,23.25
2022-09-28T10:08:34.129Z,22.95
2022-09-28T10:11:11.325Z,28.87
2022-09-28T10:13:44.667Z,27.45
2022-09-28T10:16:34.413Z,24.02
2022-09-28T10:19:07.346Z,22.92
2022-09-28T10:21:58.604Z,27.60
2022-09-28T10:24:34.277Z,23.80
2022-09-28T10:27:10.708Z,23.25
2022-09-28T10:29:47.311Z,20.73
2022-09-28T10:32:23.051Z,20.77
2022-09-28T10:34:55.833Z,18.35
2022-09-28T10:37:31.355Z,17.35
2022-09-28T10:40:30.361Z,23.40
2022-09-28T10:43:09.461Z,18.65
2022-09-28T10:45:40.308Z,17.65
2022-09-28T10:48:18.130Z,17.35
2022-09-28T10:51:00.552Z,15.57
2022-09-28T10:53:30.665Z,19.02
2022-09-28T10:56:22.616Z,14.50
2022-09-28T10:59:01.743Z,18.10
2022-09-28T11:01:46.598Z,15.75
2022-09-28T11:04:23.736Z,15.63
2022-09-28T11:06:54.582Z,14.82
2022-09-28T11:09:31.088Z,13.60
2022-09-28T11:12:07.819Z,18.80
2022-09-28T11:14:43.700Z,14.98
2022-09-28T11:17:27.275Z,19.02
2022-09-28T11:19:57.551Z,18.75
2022-09-28T11:22:31.546Z,22.67
2022-09-28T11:25:23.663Z,18.70
2022-09-28T11:28:04.334Z,18.40
2022-09-28T11:30:41.619Z,16.60
2022-09-28T11:33:28.226Z,19.88
2022-09-28T11:36:31.670Z,21.60
2022-09-28T11:39:08.648Z,17.27
2022-09-28T11:41:53.885Z,17.60
2022-09-28T11:44:35.228Z,21.00
2022-09-28T11:47:44.196Z,18.42
2022-09-28T11:50:24.549Z,15.30
2022-09-28T11:53:00.327Z,16.20
2022-09-28T11:55:34.472Z,16.33
2022-09-28T11:58:08.914Z,15.20
2022-09-28T12:00:42.213Z,16.23
2022-09-28T12:03:17.282Z,18.47
2022-09-28T12:05:50.532Z,11.93
2022-09-28T12:08:25.491Z,13.77
2022-09-28T12:11:12.481Z,15.07
2022-09-28T12:14:03.858Z,16.48
2022-09-28T12:17:03.991Z,14.93
2022-09-28T12:19:33.800Z,14.10
2022-09-28T12:22:07.059Z,17.35
2022-09-28T12:24:40.432Z,13.38
2022-09-28T12:27:14.628Z,18.70
2022-09-28T12:29:47.518Z,13.07
2022-09-28T12:32:25.014Z,14.60
2022-09-28T12:34:57.237Z,10.73
2022-09-28T12:37:36.992Z,13.73
2022-09-28T12:40:27.050Z,13.68
2022-09-28T12:43:29.029Z,10.70
2022-09-28T12:46:24.289Z,11.00
2022-09-28T12:50:13.764Z,12.17
2022-09-28T12:52:20.329Z,13.65
2022-09-28T12:55:06.565Z,14.18
2022-09-28T12:57:42.975Z,10.50
2022-09-28T13:00:15.391Z,12.30
2022-09-28T13:03:06.041Z,14.00
2022-09-28T13:05:52.404Z,16.17
2022-09-28T13:08:29.669Z,13.05
2022-09-28T13:11:08.006Z,13.60
2022-09-28T13:13:45.597Z,11.93
2022-09-28T13:16:19.259Z,10.87
2022-09-28T13:18:52.156Z,11.20
2022-09-28T13:21:28.362Z,8.57
2022-09-28T13:24:20.943Z,10.47
2022-09-28T13:26:57.125Z,9.88
2022-09-28T13:29:27.400Z,7.90
2022-09-28T13:31:58.933Z,12.57
2022-09-28T13:34:30.120Z,13.07
2022-09-28T13:37:21.691Z,11.55
2022-09-28T13:39:56.512Z,12.60
2022-09-28T13:42:30.596Z,8.30
2022-09-28T13:45:11.907Z,11.02
2022-09-28T13:47:57.659Z,6.72
2022-09-28T13:50:34.347Z,9.45
2022-09-28T13:53:11.304Z,7.88
2022-09-28T13:55:53.906Z,8.85
2022-09-28T13:58:27.385Z,9.57
2022-09-28T14:01:03.141Z,8.27
2022-09-28T14:03:47.171Z,7.73
2022-09-28T14:06:28.454Z,7.80
2022-09-28T14:09:42.851Z,8.80
2022-09-28T14:12:46.176Z,8.85
2022-09-28T14:15:44.640Z,7.07
2022-09-28T14:18:23.472Z,11.10
2022-09-28T14:21:14.347Z,8.57
2022-09-28T14:23:59.083Z,6.28
2022-09-28T14:26:53.702Z,6.20
2022-09-28T14:29:33.206Z,8.03
2022-09-28T14:32:07.706Z,7.05
2022-09-28T14:34:39.211Z,7.00
2022-09-28T14:37:34.624Z,9.68
2022-09-28T14:40:24.782Z,7.80
2022-09-28T14:43:26.996Z,8.15
2022-09-28T14:46:26.440Z,7.38
2022-09-28T14:49:01.741Z,5.47
2022-09-28T14:51:47.035Z,4.63
2022-09-28T14:54:20.296Z,9.00
2022-09-28T14:56:59.834Z,3.38
2022-09-28T14:59:32.288Z,4.43
2022-09-28T15:02:03.554Z,4.00
2022-09-28T15:04:39.048Z,4.43
2022-09-28T15:07:08.784Z,4.50
2022-09-28T15:09:40.003Z,4.03
2022-09-28T15:12:18.049Z,5.30
2022-09-28T15:14:51.377Z,5.70
2022-09-28T15:17:23.945Z,6.50
2022-09-28T15:20:10.986Z,4.50
2022-09-28T15:22:42.335Z,4.20
2022-09-28T15:25:16.840Z,3.60
2022-09-28T15:27:47.374Z,3.22
2022-09-28T15:30:25.407Z,2.90
2022-09-28T15:32:56.895Z,3.90
2022-09-28T15:35:27.581Z,5.65
2022-09-28T15:37:57.890Z,4.00
2022-09-28T15:40:34.311Z,4.40
2022-09-28T15:43:04.045Z,6.37
2022-09-28T15:45:37.736Z,4.78
2022-09-28T15:48:22.340Z,4.75
2022-09-28T15:51:10.907Z,5.30
2022-09-28T15:53:45.978Z,3.73
2022-09-28T15:56:15.712Z,5.40
2022-09-28T15:58:46.532Z,4.57
2022-09-28T16:01:36.270Z,5.70
2022-09-28T16:04:40.640Z,5.13
2022-09-28T16:07:27.583Z,6.10
2022-09-28T16:10:06.467Z,5.30
2022-09-28T16:12:48.083Z,6.75
2022-09-28T16:15:21.614Z,9.27
2022-09-28T16:17:56.229Z,7.13
2022-09-28T16:20:32.083Z,6.00
2022-09-28T16:23:11.010Z,7.50
2022-09-28T16:25:40.976Z,10.07
2022-09-28T16:28:31.359Z,9.13
2022-09-28T16:31:04.713Z,10.05
2022-09-28T16:33:43.722Z,8.10
2022-09-28T16:36:15.571Z,9.80
2022-09-28T16:38:49.333Z,5.85
2022-09-28T16:41:22.197Z,8.23
2022-09-28T16:43:59.153Z,6.22
2022-09-28T16:46:36.292Z,6.20
2022-09-28T16:49:06.860Z,4.13
2022-09-28T16:51:40.058Z,4.60
2022-09-28T16:54:29.512Z,3.75
2022-09-28T16:56:59.126Z,4.63
2022-09-28T16:59:28.673Z,5.00
2022-09-28T17:01:59.065Z,7.57
2022-09-28T17:04:29.201Z,5.15
2022-09-28T17:06:59.293Z,4.68
2022-09-28T17:09:31.647Z,4.50
2022-09-28T17:12:01.310Z,5.40
2022-09-28T17:14:32.804Z,3.53
2022-09-28T17:19:53.098Z,3.83
2022-09-28T17:22:22.638Z,3.27
2022-09-28T17:24:54.828Z,9.88
2022-09-28T17:27:24.602Z,3.67
2022-09-28T17:29:54.148Z,5.78
2022-09-28T17:32:23.755Z,5.57
2022-09-28T17:35:06.430Z,5.68
2022-09-28T17:37:43.330Z,4.00
2022-09-28T17:40:24.341Z,4.15
2022-09-28T17:42:56.102Z,4.88
2022-09-28T17:45:26.958Z,3.67
2022-09-28T17:47:57.328Z,5.55
2022-09-28T17:50:29.430Z,11.10
2022-09-28T17:53:02.773Z,6.72
2022-09-28T17:55:36.694Z,4.90
2022-09-28T17:58:17.189Z,17.75
2022-09-28T18:00:47.825Z,5.60
2022-09-28T18:03:19.899Z,4.45
2022-09-28T18:05:50.956Z,6.53
2022-09-28T18:08:22.067Z,5.80
2022-09-28T18:10:54.956Z,4.43
2022-09-28T18:13:24.644Z,7.45
2022-09-28T18:15:54.735Z,14.30
2022-09-28T18:18:24.593Z,7.80
2022-09-28T18:20:54.153Z,5.20
2022-09-28T18:23:23.740Z,5.65
2022-09-28T18:25:55.970Z,4.18
2022-09-28T18:28:25.715Z,4.63
2022-09-28T18:30:55.297Z,4.57
2022-09-28T18:33:24.896Z,3.72
2022-09-28T18:35:55.053Z,4.73
2022-09-28T18:38:24.609Z,9.57
2022-09-28T18:40:57.168Z,3.70
2022-09-28T18:43:26.847Z,6.07
2022-09-28T18:45:56.548Z,6.10
2022-09-28T18:48:27.966Z,8.77
2022-09-28T18:50:57.525Z,6.28
2022-09-28T18:53:27.384Z,7.78
2022-09-28T18:56:00.228Z,5.57
2022-09-28T18:58:29.890Z,7.80
2022-09-28T19:01:13.713Z,6.90
2022-09-28T19:03:49.080Z,3.08
2022-09-28T19:06:19.076Z,6.10
2022-09-28T19:08:55.673Z,4.97
2022-09-28T19:11:28.568Z,4.95
2022-09-28T19:13:58.956Z,4.50
2022-09-28T19:16:30.003Z,6.40
2022-09-28T19:19:00.946Z,6.60
2022-09-28T19:21:30.614Z,6.63
2022-09-28T19:24:02.916Z,6.95
2022-09-28T19:26:35.540Z,7.03
2022-09-28T19:29:05.124Z,6.13
2022-09-28T19:31:35.103Z,6.88
2022-09-28T19:34:04.649Z,6.63
2022-09-28T19:36:34.523Z,7.35
2022-09-28T19:39:07.088Z,5.60
2022-09-28T19:41:49.535Z,5.82
2022-09-28T19:44:24.851Z,7.40
2022-09-28T19:46:55.818Z,7.13
2022-09-28T19:49:26.444Z,8.27
2022-09-28T19:52:15.078Z,10.35
2022-09-28T19:54:52.121Z,9.97
2022-09-28T19:57:24.837Z,11.93
2022-09-28T19:59:59.273Z,10.97
2022-09-28T20:02:35.539Z,12.25
2022-09-28T20:05:05.142Z,11.10
2022-09-28T20:07:36.117Z,12.20
2022-09-28T20:10:06.166Z,8.88
2022-09-28T20:12:38.403Z,9.57
2022-09-28T20:15:10.160Z,12.15
2022-09-28T20:17:39.779Z,12.05
2022-09-28T20:20:10.111Z,11.82
2022-09-28T20:22:40.186Z,16.85
2022-09-28T20:25:10.321Z,14.25
2022-09-28T20:27:42.424Z,15.55
2022-09-28T20:30:13.683Z,17.60
2022-09-28T20:32:48.740Z,16.33
2022-09-28T20:35:30.313Z,14.63
2022-09-28T20:38:08.045Z,14.35
2022-09-28T20:40:37.783Z,15.35
2022-09-28T20:43:10.406Z,16.23
2022-09-28T20:45:40.005Z,15.57
2022-09-28T20:48:09.772Z,16.00
2022-09-28T20:50:40.693Z,19.60
2022-09-28T20:53:10.230Z,16.55
2022-09-28T20:55:39.852Z,15.85
2022-09-28T20:58:11.974Z,16.40
2022-09-28T21:00:41.723Z,15.55
2022-09-28T21:03:11.432Z,15.02
2022-09-28T21:05:41.087Z,16.38
2022-09-28T21:08:10.604Z,20.60
2022-09-28T21:10:40.120Z,18.02
2022-09-28T21:13:12.390Z,18.80
2022-09-28T21:15:42.112Z,19.10
2022-09-28T21:18:11.725Z,21.60
2022-09-28T21:20:46.975Z,19.10
2022-09-28T21:23:16.645Z,17.45
2022-09-28T21:25:47.508Z,19.40
2022-09-28T21:28:20.204Z,17.80
2022-09-28T21:30:49.796Z,19.85
2022-09-28T21:33:19.372Z,18.70
2022-09-28T21:35:48.893Z,19.05
2022-09-28T21:38:18.411Z,23.17
2022-09-28T21:40:48.516Z,19.80
2022-09-28T21:43:20.784Z,20.67
2022-09-28T21:45:52.161Z,19.60
2022-09-28T21:48:22.226Z,19.52
2022-09-28T21:50:59.151Z,19.98
2022-09-28T21:53:31.665Z,17.70
2022-09-28T21:56:02.017Z,24.27
2022-09-28T21:58:35.573Z,19.30
2022-09-28T22:01:06.899Z,19.35
2022-09-28T22:03:38.188Z,21.20
2022-09-28T22:06:09.018Z,22.45
2022-09-28T22:08:39.126Z,20.77
2022-09-28T22:11:11.002Z,24.38
2022-09-28T22:13:45.554Z,21.58
2022-09-28T22:16:16.767Z,23.23
2022-09-28T22:18:46.931Z,22.33
2022-09-28T22:21:18.505Z,21.57
2022-09-28T22:23:48.399Z,22.25
2022-09-28T22:26:20.693Z,21.55
2022-09-28T22:28:54.259Z,20.70
2022-09-28T22:31:25.799Z,22.25
2022-09-28T22:33:55.725Z,23.45
2022-09-28T22:36:25.924Z,21.80
2022-09-28T22:38:56.872Z,22.60
2022-09-28T22:41:26.964Z,19.00
2022-09-28T22:43:59.204Z,20.48
2022-09-28T22:46:31.862Z,21.52
2022-09-28T22:49:02.099Z,25.50
2022-09-28T22:51:32.699Z,23.13
2022-09-28T22:54:02.278Z,23.95
2022-09-28T22:56:32.075Z,19.02
2022-09-28T22:59:04.520Z,23.38
2022-09-28T23:01:34.075Z,19.23
2022-09-28T23:04:04.235Z,23.35
2022-09-28T23:06:33.770Z,22.30
2022-09-28T23:09:03.587Z,22.10
2022-09-28T23:11:33.208Z,19.30
2022-09-28T23:14:05.869Z,20.35
2022-09-28T23:16:35.419Z,23.00
2022-09-28T23:19:05.067Z,19.40
2022-09-28T23:21:34.621Z,23.02
2022-09-28T23:24:04.752Z,22.60
2022-09-28T23:26:36.977Z,24.90
2022-09-28T23:29:09.178Z,21.05
2022-09-28T23:31:38.827Z,19.77
2022-09-28T23:34:09.448Z,21.42
2022-09-28T23:36:38.980Z,22.73
2022-09-28T23:39:08.515Z,20.67
2022-09-28T23:41:38.146Z,21.35
2022-09-28T23:44:10.267Z,23.45
2022-09-28T23:46:39.911Z,22.33
2022-09-28T23:49:09.611Z,23.13
2022-09-28T23:51:39.136Z,20.27
2022-09-28T23:54:08.896Z,19.55
2022-09-28T23:56:38.494Z,23.40
2022-09-28T23:59:10.661Z,20.63
